createdAt,value
2022-08-17T00:02:25.253Z,19.65
2022-08-17T00:04:54.511Z,19.38
2022-08-17T00:07:21.189Z,21.55
2022-08-17T00:09:47.675Z,21.17
2022-08-17T00:12:42.998Z,22.52
2022-08-17T00:15:01.044Z,21.48
2022-08-17T00:17:27.849Z,21.35
2022-08-17T00:19:54.322Z,21.15
2022-08-17T00:22:35.328Z,21.75
2022-08-17T00:25:11.983Z,22.60
2022-08-17T00:27:38.442Z,23.10
2022-08-17T00:30:08.671Z,24.13
2022-08-17T00:33:15.641Z,22.50
2022-08-17T00:35:27.825Z,23.20
2022-08-17T00:37:54.392Z,25.42
2022-08-17T00:40:21.593Z,23.52
2022-08-17T00:42:51.968Z,23.95
2022-08-17T00:45:20.314Z,24.33
2022-08-17T00:47:47.385Z,25.63
2022-08-17T00:50:16.926Z,26.92
2022-08-17T00:52:50.894Z,26.95
2022-08-17T00:55:22.187Z,25.83
2022-08-17T00:57:55.161Z,26.95
2022-08-17T01:00:28.685Z,27.75
2022-08-17T01:03:00.179Z,27.13
2022-08-17T01:05:29.415Z,28.08
2022-08-17T01:07:55.979Z,27.80
2022-08-17T01:10:58.657Z,30.13
2022-08-17T01:13:24.399Z,29.05
2022-08-17T01:16:00.083Z,29.98
2022-08-17T01:18:27.562Z,31.00
2022-08-17T01:20:57.495Z,31.55
2022-08-17T01:23:26.038Z,30.25
2022-08-17T01:25:56.705Z,30.42
2022-08-17T01:28:52.317Z,31.23
2022-08-17T01:31:13.635Z,32.83
2022-08-17T01:33:40.249Z,32.13
2022-08-17T01:36:07.361Z,33.33
2022-08-17T01:38:38.609Z,32.97
2022-08-17T01:41:18.410Z,33.88
2022-08-17T01:43:50.898Z,33.95
2022-08-17T01:46:23.169Z,33.85
2022-08-17T01:48:51.134Z,34.60
2022-08-17T01:51:17.731Z,35.80
2022-08-17T01:53:52.291Z,35.53
2022-08-17T01:56:21.562Z,35.42
2022-08-17T01:58:48.633Z,34.38
2022-08-17T02:01:21.667Z,35.15
2022-08-17T02:03:53.511Z,35.03
2022-08-17T02:06:28.912Z,36.13
2022-08-17T02:09:01.656Z,36.20
2022-08-17T02:11:30.996Z,36.55
2022-08-17T02:14:03.404Z,35.65
2022-08-17T02:16:37.189Z,36.40
2022-08-17T02:19:07.363Z,35.95
2022-08-17T02:21:34.172Z,36.58
2022-08-17T02:24:00.785Z,36.67
2022-08-17T02:26:27.326Z,36.20
2022-08-17T02:28:53.899Z,36.03
2022-08-17T02:31:21.221Z,36.75
2022-08-17T02:33:47.762Z,36.22
2022-08-17T02:36:30.040Z,35.30
2022-08-17T02:38:56.944Z,36.80
2022-08-17T02:41:23.438Z,36.75
2022-08-17T02:43:49.907Z,36.85
2022-08-17T02:46:16.346Z,36.55
2022-08-17T02:48:42.810Z,37.35
2022-08-17T02:51:10.628Z,36.28
2022-08-17T02:53:37.223Z,36.00
2022-08-17T02:56:04.207Z,35.75
2022-08-17T02:58:35.535Z,34.92
2022-08-17T03:01:07.805Z,37.22
2022-08-17T03:03:35.974Z,37.45
2022-08-17T03:06:03.227Z,37.88
2022-08-17T03:08:30.701Z,37.42
2022-08-17T03:10:57.255Z,38.17
2022-08-17T03:13:24.094Z,37.92
2022-08-17T03:15:50.874Z,38.60
2022-08-17T03:18:25.684Z,38.05
2022-08-17T03:20:55.674Z,37.20
2022-08-17T03:23:24.001Z,37.25
2022-08-17T03:25:52.802Z,37.78
2022-08-17T03:28:20.534Z,37.10
2022-08-17T03:30:47.082Z,35.58
2022-08-17T03:33:13.684Z,36.05
2022-08-17T03:35:40.568Z,35.25
2022-08-17T03:38:09.028Z,34.88
2022-08-17T03:40:57.509Z,34.67
2022-08-17T03:43:23.141Z,35.72
2022-08-17T03:46:11.061Z,34.88
2022-08-17T03:49:13.987Z,34.63
2022-08-17T03:51:58.978Z,34.28
2022-08-17T03:54:44.114Z,36.10
2022-08-17T03:57:12.184Z,35.40
2022-08-17T03:59:38.808Z,36.38
2022-08-17T04:02:11.119Z,39.28
2022-08-17T04:04:38.799Z,38.60
2022-08-17T04:07:05.871Z,41.25
2022-08-17T04:09:32.430Z,40.50
2022-08-17T04:12:02.414Z,42.67
2022-08-17T04:14:36.079Z,43.28
2022-08-17T04:17:06.285Z,42.85
2022-08-17T04:19:33.010Z,42.35
2022-08-17T04:21:59.475Z,41.22
2022-08-17T04:24:27.125Z,43.28
2022-08-17T04:26:54.794Z,44.20
2022-08-17T04:29:21.541Z,45.42
2022-08-17T04:31:48.172Z,45.83
2022-08-17T04:34:14.716Z,45.55
2022-08-17T04:36:50.259Z,46.05
2022-08-17T04:39:17.170Z,47.85
2022-08-17T04:42:02.282Z,46.53
2022-08-17T04:44:37.730Z,48.20
2022-08-17T04:47:05.022Z,48.90
2022-08-17T04:49:32.502Z,49.80
2022-08-17T04:52:04.373Z,51.13
2022-08-17T04:54:31.691Z,56.67
2022-08-17T04:56:58.170Z,58.15
2022-08-17T04:59:24.848Z,62.33
2022-08-17T05:01:51.917Z,64.30
2022-08-17T05:04:34.396Z,64.97
2022-08-17T05:07:02.113Z,66.05
2022-08-17T05:09:28.976Z,65.05
2022-08-17T05:11:56.252Z,64.18
2022-08-17T05:14:33.097Z,67.93
2022-08-17T05:17:00.403Z,65.90
2022-08-17T05:19:28.403Z,67.95
2022-08-17T05:21:54.824Z,66.53
2022-08-17T05:24:43.070Z,62.75
2022-08-17T05:27:08.589Z,67.88
2022-08-17T05:29:35.633Z,67.03
2022-08-17T05:32:38.734Z,66.05
2022-08-17T05:35:00.451Z,67.28
2022-08-17T05:37:27.263Z,68.15
2022-08-17T05:39:56.674Z,68.25
2022-08-17T05:42:24.009Z,65.20
2022-08-17T05:44:50.468Z,70.85
2022-08-17T05:47:18.276Z,68.75
2022-08-17T05:49:44.899Z,67.65
2022-08-17T05:52:33.762Z,67.20
2022-08-17T05:55:09.930Z,70.50
2022-08-17T05:57:56.146Z,70.18
2022-08-17T06:00:30.838Z,68.97
2022-08-17T06:03:27.359Z,70.30
2022-08-17T06:06:25.199Z,67.15
2022-08-17T06:09:51.691Z,71.22
2022-08-17T06:12:56.036Z,68.05
2022-08-17T06:15:32.062Z,74.07
2022-08-17T06:18:02.714Z,68.88
2022-08-17T06:20:38.378Z,67.05
2022-08-17T06:23:10.655Z,68.63
2022-08-17T06:25:44.975Z,69.82
2022-08-17T06:28:24.214Z,69.57
2022-08-17T06:31:00.876Z,70.43
2022-08-17T06:33:34.194Z,69.97
2022-08-17T06:36:26.318Z,71.15
2022-08-17T06:38:59.740Z,69.25
2022-08-17T06:41:46.109Z,72.47
2022-08-17T06:44:49.866Z,72.50
2022-08-17T06:47:28.831Z,75.13
2022-08-17T06:50:05.451Z,72.30
2022-08-17T06:52:46.676Z,73.18
2022-08-17T06:55:26.189Z,75.18
2022-08-17T06:57:59.473Z,69.75
2022-08-17T07:00:33.702Z,70.68
2022-08-17T07:03:22.518Z,69.57
2022-08-17T07:06:05.490Z,66.20
2022-08-17T07:08:49.763Z,67.65
2022-08-17T07:11:27.410Z,62.67
2022-08-17T07:14:24.462Z,68.72
2022-08-17T07:16:55.270Z,65.93
2022-08-17T07:19:26.414Z,65.03
2022-08-17T07:22:22.766Z,63.03
2022-08-17T07:24:51.508Z,66.40
2022-08-17T07:27:33.791Z,67.13
2022-08-17T07:30:10.844Z,60.78
2022-08-17T07:32:50.997Z,63.60
2022-08-17T07:35:40.642Z,61.60
2022-08-17T07:38:24.957Z,62.50
2022-08-17T07:41:05.832Z,61.95
2022-08-17T07:43:44.805Z,64.38
2022-08-17T07:46:29.733Z,67.38
2022-08-17T07:49:17.991Z,66.43
2022-08-17T07:51:45.487Z,71.55
2022-08-17T07:54:15.026Z,73.78
2022-08-17T07:57:00.324Z,74.72
2022-08-17T07:59:38.474Z,75.78
2022-08-17T08:02:33.910Z,69.55
2022-08-17T08:05:06.573Z,70.25
2022-08-17T08:07:55.806Z,70.60
2022-08-17T08:10:29.807Z,67.57
2022-08-17T08:13:06.229Z,66.97
2022-08-17T08:15:36.717Z,65.50
2022-08-17T08:18:18.631Z,62.42
2022-08-17T08:21:10.710Z,55.90
2022-08-17T08:23:37.199Z,55.00
2022-08-17T08:26:14.124Z,52.53
2022-08-17T08:29:14.672Z,49.95
2022-08-17T08:31:52.239Z,49.75
2022-08-17T08:35:00.848Z,48.88
2022-08-17T08:37:47.306Z,47.17
2022-08-17T08:40:25.550Z,46.97
2022-08-17T08:43:16.239Z,48.60
2022-08-17T08:45:57.883Z,47.42
2022-08-17T08:48:52.890Z,49.70
2022-08-17T08:51:34.570Z,48.67
2022-08-17T08:54:28.420Z,50.97
2022-08-17T09:00:10.543Z,51.67
2022-08-17T09:03:04.700Z,50.15
2022-08-17T09:06:33.382Z,49.50
2022-08-17T09:09:04.699Z,49.25
2022-08-17T09:12:01.272Z,48.78
2022-08-17T09:14:47.519Z,47.88
2022-08-17T09:17:39.655Z,48.42
2022-08-17T09:20:28.189Z,48.03
2022-08-17T09:23:15.384Z,47.33
2022-08-17T09:26:16.881Z,47.33
2022-08-17T09:28:50.511Z,49.47
2022-08-17T09:31:48.735Z,47.92
2022-08-17T09:34:19.039Z,49.08
2022-08-17T09:36:55.567Z,46.97
2022-08-17T09:39:36.193Z,47.47
2022-08-17T09:42:15.718Z,47.95
2022-08-17T09:45:16.061Z,47.50
2022-08-17T09:47:56.522Z,47.13
2022-08-17T09:51:05.013Z,42.95
2022-08-17T09:53:23.003Z,46.10
2022-08-17T09:55:55.706Z,46.42
2022-08-17T09:58:55.400Z,47.17
2022-08-17T10:01:46.821Z,47.35
2022-08-17T10:04:34.815Z,46.25
2022-08-17T10:07:20.946Z,45.95
2022-08-17T10:10:02.602Z,46.67
2022-08-17T10:13:24.739Z,45.67
2022-08-17T10:16:03.482Z,45.90
2022-08-17T10:18:38.792Z,46.67
2022-08-17T10:21:31.309Z,46.20
2022-08-17T10:24:30.430Z,47.00
2022-08-17T10:27:00.182Z,45.72
2022-08-17T10:29:47.531Z,46.95
2022-08-17T10:32:26.729Z,45.17
2022-08-17T10:35:14.627Z,43.63
2022-08-17T10:38:04.889Z,42.97
2022-08-17T10:40:55.920Z,43.47
2022-08-17T10:43:39.454Z,49.63
2022-08-17T10:46:30.547Z,49.80
2022-08-17T10:49:16.807Z,49.55
2022-08-17T10:51:45.903Z,48.20
2022-08-17T10:54:24.579Z,50.10
2022-08-17T10:56:56.686Z,51.25
2022-08-17T10:59:34.978Z,47.50
2022-08-17T11:02:04.447Z,47.38
2022-08-17T11:04:45.334Z,52.67
2022-08-17T11:07:27.891Z,51.85
2022-08-17T11:12:45.721Z,50.05
2022-08-17T11:15:15.662Z,49.45
2022-08-17T11:18:07.738Z,48.55
2022-08-17T11:20:43.573Z,51.38
2022-08-17T11:23:38.757Z,49.45
2022-08-17T11:26:25.733Z,47.30
2022-08-17T11:28:58.827Z,47.75
2022-08-17T11:31:38.823Z,47.08
2022-08-17T11:34:43.336Z,46.92
2022-08-17T11:37:36.699Z,47.00
2022-08-17T11:40:05.914Z,48.70
2022-08-17T11:42:36.176Z,45.15
2022-08-17T11:45:07.593Z,47.78
2022-08-17T11:48:29.131Z,46.87
2022-08-17T11:51:33.700Z,46.88
2022-08-17T11:54:34.736Z,47.45
2022-08-17T11:57:21.376Z,48.05
2022-08-17T11:59:47.816Z,49.92
2022-08-17T12:02:35.437Z,47.25
2022-08-17T12:05:12.299Z,47.65
2022-08-17T12:07:49.278Z,45.72
2022-08-17T12:10:19.310Z,45.90
2022-08-17T12:12:50.089Z,45.35
2022-08-17T12:15:21.433Z,41.78
2022-08-17T12:17:53.862Z,40.00
2022-08-17T12:20:27.700Z,41.33
2022-08-17T12:23:01.007Z,40.22
2022-08-17T12:25:33.988Z,39.80
2022-08-17T12:28:06.594Z,38.53
2022-08-17T12:30:35.419Z,37.95
2022-08-17T12:33:02.484Z,36.65
2022-08-17T12:35:36.147Z,37.03
2022-08-17T12:38:07.331Z,37.40
2022-08-17T12:40:58.034Z,36.90
2022-08-17T12:43:27.514Z,34.92
2022-08-17T12:45:57.295Z,36.35
2022-08-17T12:48:30.950Z,36.33
2022-08-17T12:51:02.817Z,35.47
2022-08-17T12:53:32.113Z,36.55
2022-08-17T12:56:00.187Z,34.67
2022-08-17T12:58:33.127Z,32.92
2022-08-17T13:01:04.588Z,34.55
2022-08-17T13:03:53.214Z,34.53
2022-08-17T13:06:30.088Z,34.47
2022-08-17T13:08:56.756Z,34.13
2022-08-17T13:11:24.819Z,35.90
2022-08-17T13:13:55.044Z,35.63
2022-08-17T13:16:25.698Z,35.85
2022-08-17T13:19:09.561Z,36.83
2022-08-17T13:21:37.856Z,35.72
2022-08-17T13:24:07.745Z,39.20
2022-08-17T13:26:35.606Z,37.88
2022-08-17T13:29:06.562Z,38.20
2022-08-17T13:31:52.413Z,41.40
2022-08-17T13:34:26.702Z,41.58
2022-08-17T13:37:29.409Z,41.00
2022-08-17T13:40:26.638Z,41.15
2022-08-17T13:42:55.418Z,41.55
2022-08-17T13:45:36.094Z,40.90
2022-08-17T13:48:13.635Z,44.40
2022-08-17T13:50:55.627Z,43.47
2022-08-17T13:53:48.985Z,43.63
2022-08-17T13:56:37.746Z,47.05
2022-08-17T13:59:36.293Z,48.90
2022-08-17T14:02:14.078Z,51.72
2022-08-17T14:04:44.026Z,54.75
2022-08-17T14:07:11.390Z,55.58
2022-08-17T14:09:48.514Z,56.83
2022-08-17T14:12:19.873Z,58.63
2022-08-17T14:14:46.414Z,60.42
2022-08-17T14:17:13.263Z,58.08
2022-08-17T14:19:39.804Z,60.63
2022-08-17T14:22:11.513Z,62.17
2022-08-17T14:24:44.643Z,62.67
2022-08-17T14:27:11.952Z,63.47
2022-08-17T14:29:38.779Z,66.10
2022-08-17T14:32:26.933Z,64.95
2022-08-17T14:34:56.555Z,68.47
2022-08-17T14:37:26.252Z,66.85
2022-08-17T14:39:57.750Z,67.43
2022-08-17T14:42:27.051Z,66.97
2022-08-17T14:44:55.076Z,70.20
2022-08-17T14:47:22.248Z,71.65
2022-08-17T14:49:51.486Z,69.22
2022-08-17T14:52:21.550Z,72.03
2022-08-17T14:54:51.245Z,76.70
2022-08-17T14:57:25.150Z,73.10
2022-08-17T15:00:01.300Z,74.03
2022-08-17T15:02:29.751Z,76.28
2022-08-17T15:05:02.183Z,78.32
2022-08-17T15:07:30.929Z,82.25
2022-08-17T15:10:00.658Z,81.47
2022-08-17T15:12:32.319Z,84.57
2022-08-17T15:15:00.551Z,89.77
2022-08-17T15:17:27.095Z,84.00
2022-08-17T15:20:17.294Z,83.45
2022-08-17T15:22:45.457Z,86.57
2022-08-17T15:25:12.514Z,83.30
2022-08-17T15:27:38.959Z,79.57
2022-08-17T15:30:07.252Z,78.40
2022-08-17T15:32:37.857Z,76.40
2022-08-17T15:35:06.058Z,72.30
2022-08-17T15:37:32.525Z,73.85
2022-08-17T15:40:01.142Z,73.78
2022-08-17T15:42:29.240Z,71.32
2022-08-17T15:44:55.852Z,74.13
2022-08-17T15:47:23.119Z,73.85
2022-08-17T15:49:50.681Z,69.75
2022-08-17T15:52:23.354Z,68.55
2022-08-17T15:57:27.253Z,64.10
2022-08-17T15:59:58.631Z,66.85
2022-08-17T16:03:14.923Z,66.25
2022-08-17T16:05:21.959Z,64.93
2022-08-17T16:07:52.488Z,64.65
2022-08-17T16:10:19.664Z,62.13
2022-08-17T16:12:48.415Z,63.85
2022-08-17T16:15:16.322Z,62.53
2022-08-17T16:17:43.045Z,62.08
2022-08-17T16:20:20.029Z,66.30
2022-08-17T16:22:49.147Z,59.75
2022-08-17T16:25:22.782Z,61.22
2022-08-17T16:28:05.430Z,60.72
2022-08-17T16:30:33.107Z,61.75
2022-08-17T16:33:01.513Z,63.17
2022-08-17T16:35:28.029Z,61.13
2022-08-17T16:37:57.040Z,59.97
2022-08-17T16:40:27.408Z,60.97
2022-08-17T16:42:55.253Z,59.03
2022-08-17T16:45:27.238Z,60.05
2022-08-17T16:47:54.928Z,58.72
2022-08-17T16:50:23.409Z,55.80
2022-08-17T16:52:50.950Z,53.67
2022-08-17T16:55:20.585Z,52.30
2022-08-17T16:57:50.650Z,52.38
2022-08-17T17:00:19.194Z,53.58
2022-08-17T17:02:47.569Z,50.97
2022-08-17T17:05:51.323Z,48.28
2022-08-17T17:08:30.279Z,45.55
2022-08-17T17:10:59.982Z,45.03
2022-08-17T17:13:40.814Z,43.28
2022-08-17T17:16:41.433Z,42.65
2022-08-17T17:19:17.803Z,44.58
2022-08-17T17:22:21.711Z,41.13
2022-08-17T17:25:14.174Z,39.85
2022-08-17T17:27:54.921Z,42.45
2022-08-17T17:30:48.199Z,38.58
2022-08-17T17:33:19.076Z,39.72
2022-08-17T17:36:00.108Z,39.20
2022-08-17T17:38:34.145Z,36.88
2022-08-17T17:41:05.434Z,35.65
2022-08-17T17:43:39.603Z,36.97
2022-08-17T17:46:30.539Z,35.28
2022-08-17T17:48:57.820Z,34.28
2022-08-17T17:52:06.745Z,32.92
2022-08-17T17:54:56.250Z,32.85
2022-08-17T17:57:34.694Z,31.73
2022-08-17T18:00:19.058Z,31.23
2022-08-17T18:02:52.847Z,31.80
2022-08-17T18:05:46.902Z,31.35
2022-08-17T18:08:34.366Z,30.05
2022-08-17T18:11:24.389Z,29.80
2022-08-17T18:14:07.650Z,28.98
2022-08-17T18:19:00.920Z,27.52
2022-08-17T18:21:39.081Z,29.17
2022-08-17T18:24:08.375Z,27.42
2022-08-17T18:26:40.034Z,29.58
2022-08-17T18:29:23.898Z,28.92
2022-08-17T18:32:16.022Z,29.30
2022-08-17T18:34:47.665Z,27.38
2022-08-17T18:37:35.260Z,28.17
2022-08-17T18:40:24.036Z,28.23
2022-08-17T18:43:05.505Z,29.17
2022-08-17T18:45:43.162Z,27.55
2022-08-17T18:48:21.058Z,27.13
2022-08-17T18:50:48.062Z,26.55
2022-08-17T18:53:33.199Z,27.58
2022-08-17T18:56:36.100Z,27.73
2022-08-17T18:59:05.060Z,28.45
2022-08-17T19:02:21.589Z,27.10
2022-08-17T19:05:10.982Z,27.70
2022-08-17T19:07:45.242Z,27.27
2022-08-17T19:10:14.901Z,28.23
2022-08-17T19:12:53.087Z,26.85
2022-08-17T19:16:14.206Z,27.80
2022-08-17T19:18:50.853Z,26.65
2022-08-17T19:21:43.321Z,26.67
2022-08-17T19:24:19.279Z,26.33
2022-08-17T19:26:55.587Z,26.30
2022-08-17T19:29:38.391Z,26.30
2022-08-17T19:32:09.074Z,25.38
2022-08-17T19:34:37.154Z,26.33
2022-08-17T19:37:29.964Z,26.10
2022-08-17T19:40:48.851Z,27.30
2022-08-17T19:43:37.846Z,27.83
2022-08-17T19:46:25.974Z,26.02
2022-08-17T19:49:12.713Z,25.00
2022-08-17T19:51:43.753Z,26.77
2022-08-17T19:54:35.536Z,23.52
2022-08-17T19:57:27.119Z,25.67
2022-08-17T20:00:04.415Z,22.85
2022-08-17T20:02:41.302Z,23.30
2022-08-17T20:05:21.280Z,22.52
2022-08-17T20:08:12.321Z,22.20
2022-08-17T20:10:48.102Z,20.80
2022-08-17T20:13:33.564Z,21.75
2022-08-17T20:16:01.049Z,21.48
2022-08-17T20:18:33.489Z,22.30
2022-08-17T20:21:10.015Z,21.02
2022-08-17T20:24:01.552Z,22.05
2022-08-17T20:26:58.012Z,20.63
2022-08-17T20:29:40.268Z,17.63
2022-08-17T20:32:21.493Z,16.92
2022-08-17T20:34:48.317Z,17.02
2022-08-17T20:37:14.704Z,15.98
2022-08-17T20:39:43.047Z,14.93
2022-08-17T20:42:29.794Z,15.43
2022-08-17T20:45:05.156Z,15.30
2022-08-17T20:47:50.444Z,15.98
2022-08-17T20:50:29.624Z,16.33
2022-08-17T20:52:58.966Z,18.20
2022-08-17T20:55:34.269Z,19.77
2022-08-17T20:58:16.051Z,19.63
2022-08-17T21:00:50.214Z,21.08
2022-08-17T21:03:28.603Z,20.48
2022-08-17T21:06:18.378Z,17.27
2022-08-17T21:08:57.764Z,15.95
2022-08-17T21:11:57.032Z,14.93
2022-08-17T21:14:30.977Z,15.95
2022-08-17T21:17:19.003Z,14.90
2022-08-17T21:20:10.740Z,15.10
2022-08-17T21:22:50.516Z,14.13
2022-08-17T21:25:44.809Z,15.00
2022-08-17T21:29:00.640Z,15.85
2022-08-17T21:31:39.883Z,14.95
2022-08-17T21:34:15.386Z,15.25
2022-08-17T21:36:43.767Z,15.93
2022-08-17T21:39:14.451Z,14.80
2022-08-17T21:41:52.726Z,15.35
2022-08-17T21:44:19.287Z,14.18
2022-08-17T21:46:49.333Z,13.60
2022-08-17T21:49:19.492Z,13.48
2022-08-17T21:51:54.079Z,15.02
2022-08-17T21:54:30.769Z,14.80
2022-08-17T21:57:00.625Z,14.77
2022-08-17T21:59:32.858Z,14.77
2022-08-17T22:02:02.195Z,15.32
2022-08-17T22:04:40.796Z,14.73
2022-08-17T22:07:11.225Z,16.83
2022-08-17T22:09:41.244Z,16.88
2022-08-17T22:12:26.124Z,17.02
2022-08-17T22:14:55.452Z,16.00
2022-08-17T22:17:23.930Z,15.77
2022-08-17T22:19:54.306Z,15.90
2022-08-17T22:22:58.297Z,15.68
2022-08-17T22:25:27.281Z,15.07
2022-08-17T22:27:57.329Z,14.77
2022-08-17T22:30:34.371Z,15.77
2022-08-17T22:33:29.361Z,15.43
2022-08-17T22:36:24.645Z,14.65
2022-08-17T22:39:00.137Z,15.68
2022-08-17T22:41:26.546Z,15.25
2022-08-17T22:43:54.087Z,16.13
2022-08-17T22:46:23.816Z,15.90
2022-08-17T22:48:54.770Z,15.38
2022-08-17T22:51:25.548Z,15.32
2022-08-17T22:54:14.684Z,15.50
2022-08-17T22:57:18.734Z,15.95
2022-08-17T22:59:52.708Z,16.33
2022-08-17T23:02:32.084Z,16.00
2022-08-17T23:05:12.669Z,16.45
2022-08-17T23:07:40.621Z,16.88
2022-08-17T23:10:09.866Z,16.58
2022-08-17T23:12:39.921Z,18.05
2022-08-17T23:15:18.918Z,18.30
2022-08-17T23:17:45.881Z,17.23
2022-08-17T23:20:14.992Z,18.05
2022-08-17T23:22:51.265Z,17.65
2022-08-17T23:25:25.531Z,18.60
2022-08-17T23:27:52.336Z,18.13
2022-08-17T23:30:18.964Z,16.85
2022-08-17T23:32:53.801Z,17.52
2022-08-17T23:35:39.806Z,16.63
2022-08-17T23:38:11.825Z,16.05
2022-08-17T23:40:39.740Z,17.42
2022-08-17T23:43:24.058Z,18.00
2022-08-17T23:45:52.897Z,16.85
2022-08-17T23:48:32.645Z,17.10
2022-08-17T23:51:12.675Z,14.95
2022-08-17T23:53:46.315Z,16.35
2022-08-17T23:56:13.521Z,15.68
2022-08-17T23:58:42.632Z,15.80
